sensor_id;sensor_type;location;lat;lon;timestamp;temperature;humidity
36556;DHT22;40859;50.560;7.268;2022-07-09T00:00:25;22.10;99.90
36556;DHT22;40859;50.560;7.268;2022-07-09T00:02:51;22.10;99.90
36556;DHT22;40859;50.560;7.268;2022-07-09T00:05:17;22.10;99.90
36556;DHT22;40859;50.560;7.268;2022-07-09T00:07:43;22.00;99.90
36556;DHT22;40859;50.560;7.268;2022-07-09T00:10:09;21.90;99.90
36556;DHT22;40859;50.560;7.268;2022-07-09T00:12:36;21.80;99.90
36556;DHT22;40859;50.560;7.268;2022-07-09T00:15:02;21.90;99.90
36556;DHT22;40859;50.560;7.268;2022-07-09T00:17:28;22.00;99.90
36556;DHT22;40859;50.560;7.268;2022-07-09T00:19:57;21.90;99.90
36556;DHT22;40859;50.560;7.268;2022-07-09T00:22:23;21.90;99.90
36556;DHT22;40859;50.560;7.268;2022-07-09T00:24:49;21.90;99.90
36556;DHT22;40859;50.560;7.268;2022-07-09T00:27:15;21.90;99.90
36556;DHT22;40859;50.560;7.268;2022-07-09T00:29:40;21.80;99.90
36556;DHT22;40859;50.560;7.268;2022-07-09T00:32:07;21.90;99.90
36556;DHT22;40859;50.560;7.268;2022-07-09T00:34:33;22.00;99.90
36556;DHT22;40859;50.560;7.268;2022-07-09T00:36:59;22.00;99.90
36556;DHT22;40859;50.560;7.268;2022-07-09T00:39:26;22.00;99.90
36556;DHT22;40859;50.560;7.268;2022-07-09T00:42:05;22.00;99.90
36556;DHT22;40859;50.560;7.268;2022-07-09T00:44:31;22.00;99.90
36556;DHT22;40859;50.560;7.268;2022-07-09T00:46:57;22.10;99.90
36556;DHT22;40859;50.560;7.268;2022-07-09T00:49:24;22.00;99.90
36556;DHT22;40859;50.560;7.268;2022-07-09T00:51:50;22.00;99.90
36556;DHT22;40859;50.560;7.268;2022-07-09T00:54:16;22.00;99.90
36556;DHT22;40859;50.560;7.268;2022-07-09T00:56:43;22.00;99.90
36556;DHT22;40859;50.560;7.268;2022-07-09T00:59:09;21.80;99.90
36556;DHT22;40859;50.560;7.268;2022-07-09T01:01:58;21.80;99.90
36556;DHT22;40859;50.560;7.268;2022-07-09T01:04:25;21.80;99.90
36556;DHT22;40859;50.560;7.268;2022-07-09T01:06:50;21.90;99.90
36556;DHT22;40859;50.560;7.268;2022-07-09T01:09:16;21.90;99.90
36556;DHT22;40859;50.560;7.268;2022-07-09T01:11:42;21.90;99.90
36556;DHT22;40859;50.560;7.268;2022-07-09T01:14:08;21.90;99.90
36556;DHT22;40859;50.560;7.268;2022-07-09T01:16:36;21.90;99.90
36556;DHT22;40859;50.560;7.268;2022-07-09T01:19:05;21.80;99.90
36556;DHT22;40859;50.560;7.268;2022-07-09T01:21:32;21.80;99.90
36556;DHT22;40859;50.560;7.268;2022-07-09T01:23:58;21.80;99.90
36556;DHT22;40859;50.560;7.268;2022-07-09T01:26:25;21.80;99.90
36556;DHT22;40859;50.560;7.268;2022-07-09T01:28:51;21.70;99.90
36556;DHT22;40859;50.560;7.268;2022-07-09T01:31:17;21.70;99.90
36556;DHT22;40859;50.560;7.268;2022-07-09T01:33:44;21.70;99.90
36556;DHT22;40859;50.560;7.268;2022-07-09T01:36:10;21.70;99.90
36556;DHT22;40859;50.560;7.268;2022-07-09T01:38:37;21.70;99.90
36556;DHT22;40859;50.560;7.268;2022-07-09T01:41:03;21.70;99.90
36556;DHT22;40859;50.560;7.268;2022-07-09T01:43:31;21.70;99.90
36556;DHT22;40859;50.560;7.268;2022-07-09T01:45:58;21.70;99.90
36556;DHT22;40859;50.560;7.268;2022-07-09T01:48:26;21.60;99.90
36556;DHT22;40859;50.560;7.268;2022-07-09T01:50:55;21.60;99.90
36556;DHT22;40859;50.560;7.268;2022-07-09T01:53:23;21.70;99.90
36556;DHT22;40859;50.560;7.268;2022-07-09T01:55:50;21.70;99.90
36556;DHT22;40859;50.560;7.268;2022-07-09T01:58:16;21.60;99.90
36556;DHT22;40859;50.560;7.268;2022-07-09T02:00:42;21.60;99.90
36556;DHT22;40859;50.560;7.268;2022-07-09T02:03:09;21.70;99.90
36556;DHT22;40859;50.560;7.268;2022-07-09T02:05:35;21.60;99.90
36556;DHT22;40859;50.560;7.268;2022-07-09T02:08:01;21.60;99.90
36556;DHT22;40859;50.560;7.268;2022-07-09T02:10:27;21.60;99.90
36556;DHT22;40859;50.560;7.268;2022-07-09T02:12:53;21.50;99.90
36556;DHT22;40859;50.560;7.268;2022-07-09T02:15:19;21.60;99.90
36556;DHT22;40859;50.560;7.268;2022-07-09T02:17:46;21.50;99.90
36556;DHT22;40859;50.560;7.268;2022-07-09T02:20:11;21.60;99.90
36556;DHT22;40859;50.560;7.268;2022-07-09T02:22:37;21.60;99.90
36556;DHT22;40859;50.560;7.268;2022-07-09T02:25:05;21.60;99.90
36556;DHT22;40859;50.560;7.268;2022-07-09T02:27:31;21.50;99.90
36556;DHT22;40859;50.560;7.268;2022-07-09T02:29:57;21.50;99.90
36556;DHT22;40859;50.560;7.268;2022-07-09T02:32:24;21.50;99.90
36556;DHT22;40859;50.560;7.268;2022-07-09T02:34:49;21.50;99.90
36556;DHT22;40859;50.560;7.268;2022-07-09T02:37:15;21.50;99.90
36556;DHT22;40859;50.560;7.268;2022-07-09T02:39:42;21.50;99.90
36556;DHT22;40859;50.560;7.268;2022-07-09T02:42:08;21.40;99.90
36556;DHT22;40859;50.560;7.268;2022-07-09T02:44:34;21.40;99.90
36556;DHT22;40859;50.560;7.268;2022-07-09T02:46:59;21.40;99.90
36556;DHT22;40859;50.560;7.268;2022-07-09T02:49:26;21.40;99.90
36556;DHT22;40859;50.560;7.268;2022-07-09T02:51:52;21.40;99.90
36556;DHT22;40859;50.560;7.268;2022-07-09T02:54:18;21.40;99.90
36556;DHT22;40859;50.560;7.268;2022-07-09T02:56:44;21.30;99.90
36556;DHT22;40859;50.560;7.268;2022-07-09T02:59:10;21.30;99.90
36556;DHT22;40859;50.560;7.268;2022-07-09T03:01:36;21.30;99.90
36556;DHT22;40859;50.560;7.268;2022-07-09T03:04:02;21.30;99.90
36556;DHT22;40859;50.560;7.268;2022-07-09T03:06:29;21.20;99.90
36556;DHT22;40859;50.560;7.268;2022-07-09T03:08:55;21.20;99.90
36556;DHT22;40859;50.560;7.268;2022-07-09T03:11:21;21.20;99.90
36556;DHT22;40859;50.560;7.268;2022-07-09T03:13:47;21.10;99.90
36556;DHT22;40859;50.560;7.268;2022-07-09T03:16:13;21.10;99.90
36556;DHT22;40859;50.560;7.268;2022-07-09T03:18:39;21.20;99.90
36556;DHT22;40859;50.560;7.268;2022-07-09T03:21:05;21.10;99.90
36556;DHT22;40859;50.560;7.268;2022-07-09T03:23:34;21.10;99.90
36556;DHT22;40859;50.560;7.268;2022-07-09T03:26:00;21.10;99.90
36556;DHT22;40859;50.560;7.268;2022-07-09T03:28:26;21.10;99.90
36556;DHT22;40859;50.560;7.268;2022-07-09T03:30:52;20.90;99.90
36556;DHT22;40859;50.560;7.268;2022-07-09T03:33:18;20.70;99.90
36556;DHT22;40859;50.560;7.268;2022-07-09T03:35:44;20.80;99.90
36556;DHT22;40859;50.560;7.268;2022-07-09T03:38:10;20.90;99.90
36556;DHT22;40859;50.560;7.268;2022-07-09T03:40:36;20.90;99.90
36556;DHT22;40859;50.560;7.268;2022-07-09T03:43:02;20.80;99.90
36556;DHT22;40859;50.560;7.268;2022-07-09T03:45:28;20.90;99.90
36556;DHT22;40859;50.560;7.268;2022-07-09T03:47:55;20.90;99.90
36556;DHT22;40859;50.560;7.268;2022-07-09T03:50:22;20.90;99.90
36556;DHT22;40859;50.560;7.268;2022-07-09T03:52:48;20.70;99.90
36556;DHT22;40859;50.560;7.268;2022-07-09T03:55:14;20.40;99.90
36556;DHT22;40859;50.560;7.268;2022-07-09T03:57:40;20.40;99.90
36556;DHT22;40859;50.560;7.268;2022-07-09T04:00:07;20.60;99.90
36556;DHT22;40859;50.560;7.268;2022-07-09T04:02:33;20.60;99.90
36556;DHT22;40859;50.560;7.268;2022-07-09T04:04:59;20.40;99.90
36556;DHT22;40859;50.560;7.268;2022-07-09T04:07:25;20.00;99.90
36556;DHT22;40859;50.560;7.268;2022-07-09T04:09:58;20.20;99.90
36556;DHT22;40859;50.560;7.268;2022-07-09T04:12:24;20.30;99.90
36556;DHT22;40859;50.560;7.268;2022-07-09T04:14:50;20.60;99.90
36556;DHT22;40859;50.560;7.268;2022-07-09T04:17:16;20.90;99.90
36556;DHT22;40859;50.560;7.268;2022-07-09T04:19:42;21.00;99.90
36556;DHT22;40859;50.560;7.268;2022-07-09T04:22:08;21.10;99.90
36556;DHT22;40859;50.560;7.268;2022-07-09T04:24:34;21.20;99.90
36556;DHT22;40859;50.560;7.268;2022-07-09T04:27:01;21.20;99.90
36556;DHT22;40859;50.560;7.268;2022-07-09T04:29:26;21.30;99.90
36556;DHT22;40859;50.560;7.268;2022-07-09T04:31:52;21.40;99.90
36556;DHT22;40859;50.560;7.268;2022-07-09T04:34:19;21.50;99.90
36556;DHT22;40859;50.560;7.268;2022-07-09T04:36:45;21.50;99.90
36556;DHT22;40859;50.560;7.268;2022-07-09T04:39:11;21.40;99.90
36556;DHT22;40859;50.560;7.268;2022-07-09T04:41:38;21.30;99.90
36556;DHT22;40859;50.560;7.268;2022-07-09T04:44:04;20.60;99.90
36556;DHT22;40859;50.560;7.268;2022-07-09T04:46:30;20.20;99.90
36556;DHT22;40859;50.560;7.268;2022-07-09T04:48:57;20.20;99.90
36556;DHT22;40859;50.560;7.268;2022-07-09T04:51:24;20.10;99.90
36556;DHT22;40859;50.560;7.268;2022-07-09T04:53:49;19.90;99.90
36556;DHT22;40859;50.560;7.268;2022-07-09T04:56:15;19.80;99.90
36556;DHT22;40859;50.560;7.268;2022-07-09T04:58:42;19.70;99.90
36556;DHT22;40859;50.560;7.268;2022-07-09T05:01:28;19.70;99.90
36556;DHT22;40859;50.560;7.268;2022-07-09T05:03:56;19.80;99.90
36556;DHT22;40859;50.560;7.268;2022-07-09T05:06:22;19.70;99.90
36556;DHT22;40859;50.560;7.268;2022-07-09T05:08:48;19.50;99.90
36556;DHT22;40859;50.560;7.268;2022-07-09T05:11:14;19.60;99.90
36556;DHT22;40859;50.560;7.268;2022-07-09T05:13:41;20.00;99.90
36556;DHT22;40859;50.560;7.268;2022-07-09T05:16:08;20.00;99.90
36556;DHT22;40859;50.560;7.268;2022-07-09T05:18:34;19.90;99.90
36556;DHT22;40859;50.560;7.268;2022-07-09T05:21:01;19.80;99.90
36556;DHT22;40859;50.560;7.268;2022-07-09T05:23:26;19.80;99.90
36556;DHT22;40859;50.560;7.268;2022-07-09T05:25:52;19.60;99.90
36556;DHT22;40859;50.560;7.268;2022-07-09T05:28:19;19.80;99.90
36556;DHT22;40859;50.560;7.268;2022-07-09T05:30:45;19.70;99.90
36556;DHT22;40859;50.560;7.268;2022-07-09T05:33:11;19.60;99.90
36556;DHT22;40859;50.560;7.268;2022-07-09T05:35:37;19.60;99.90
36556;DHT22;40859;50.560;7.268;2022-07-09T05:38:04;19.50;99.90
36556;DHT22;40859;50.560;7.268;2022-07-09T05:40:30;19.70;99.90
36556;DHT22;40859;50.560;7.268;2022-07-09T05:42:56;19.60;99.90
36556;DHT22;40859;50.560;7.268;2022-07-09T05:45:21;19.80;99.90
36556;DHT22;40859;50.560;7.268;2022-07-09T05:47:47;19.80;99.90
36556;DHT22;40859;50.560;7.268;2022-07-09T05:50:13;19.90;99.90
36556;DHT22;40859;50.560;7.268;2022-07-09T05:52:39;20.00;99.90
36556;DHT22;40859;50.560;7.268;2022-07-09T05:55:05;20.10;99.90
36556;DHT22;40859;50.560;7.268;2022-07-09T05:57:32;19.90;99.90
36556;DHT22;40859;50.560;7.268;2022-07-09T05:59:58;20.10;99.90
36556;DHT22;40859;50.560;7.268;2022-07-09T06:02:24;19.90;99.90
36556;DHT22;40859;50.560;7.268;2022-07-09T06:04:50;19.80;99.90
36556;DHT22;40859;50.560;7.268;2022-07-09T06:07:16;19.80;99.90
36556;DHT22;40859;50.560;7.268;2022-07-09T06:09:42;20.00;99.90
36556;DHT22;40859;50.560;7.268;2022-07-09T06:12:09;19.90;99.90
36556;DHT22;40859;50.560;7.268;2022-07-09T06:14:35;19.80;99.90
36556;DHT22;40859;50.560;7.268;2022-07-09T06:17:00;19.90;99.90
36556;DHT22;40859;50.560;7.268;2022-07-09T06:19:35;19.80;99.90
36556;DHT22;40859;50.560;7.268;2022-07-09T06:22:10;20.00;99.90
36556;DHT22;40859;50.560;7.268;2022-07-09T06:24:36;20.10;99.90
36556;DHT22;40859;50.560;7.268;2022-07-09T06:27:02;20.00;99.90
36556;DHT22;40859;50.560;7.268;2022-07-09T06:29:28;20.00;99.90
36556;DHT22;40859;50.560;7.268;2022-07-09T06:31:55;19.90;99.90
36556;DHT22;40859;50.560;7.268;2022-07-09T06:34:25;19.90;99.90
36556;DHT22;40859;50.560;7.268;2022-07-09T06:36:51;19.60;99.90
36556;DHT22;40859;50.560;7.268;2022-07-09T06:39:17;19.70;99.90
36556;DHT22;40859;50.560;7.268;2022-07-09T06:42:05;19.80;99.90
36556;DHT22;40859;50.560;7.268;2022-07-09T06:44:33;19.80;99.90
36556;DHT22;40859;50.560;7.268;2022-07-09T06:46:59;20.10;99.90
36556;DHT22;40859;50.560;7.268;2022-07-09T06:49:25;20.30;99.90
36556;DHT22;40859;50.560;7.268;2022-07-09T06:51:52;20.50;99.90
36556;DHT22;40859;50.560;7.268;2022-07-09T06:54:18;20.50;99.90
36556;DHT22;40859;50.560;7.268;2022-07-09T06:56:45;20.60;99.90
36556;DHT22;40859;50.560;7.268;2022-07-09T06:59:10;20.70;99.90
36556;DHT22;40859;50.560;7.268;2022-07-09T07:01:36;20.70;99.90
36556;DHT22;40859;50.560;7.268;2022-07-09T07:06:31;20.80;99.90
36556;DHT22;40859;50.560;7.268;2022-07-09T07:08:57;20.80;99.90
36556;DHT22;40859;50.560;7.268;2022-07-09T07:11:23;20.80;99.90
36556;DHT22;40859;50.560;7.268;2022-07-09T07:13:48;20.80;99.90
36556;DHT22;40859;50.560;7.268;2022-07-09T07:16:14;20.90;99.90
36556;DHT22;40859;50.560;7.268;2022-07-09T07:18:40;20.90;99.90
36556;DHT22;40859;50.560;7.268;2022-07-09T07:21:06;20.90;99.90
36556;DHT22;40859;50.560;7.268;2022-07-09T07:23:32;20.90;99.90
36556;DHT22;40859;50.560;7.268;2022-07-09T07:25:58;20.90;99.90
36556;DHT22;40859;50.560;7.268;2022-07-09T07:28:24;20.90;99.90
36556;DHT22;40859;50.560;7.268;2022-07-09T07:30:50;20.90;99.90
36556;DHT22;40859;50.560;7.268;2022-07-09T07:33:16;20.90;99.90
36556;DHT22;40859;50.560;7.268;2022-07-09T07:35:43;20.90;99.90
36556;DHT22;40859;50.560;7.268;2022-07-09T07:38:09;21.00;99.90
36556;DHT22;40859;50.560;7.268;2022-07-09T07:40:35;21.00;99.90
36556;DHT22;40859;50.560;7.268;2022-07-09T07:43:05;21.00;99.90
36556;DHT22;40859;50.560;7.268;2022-07-09T07:45:31;21.00;99.90
36556;DHT22;40859;50.560;7.268;2022-07-09T07:47:57;21.00;99.90
36556;DHT22;40859;50.560;7.268;2022-07-09T07:50:23;21.10;99.90
36556;DHT22;40859;50.560;7.268;2022-07-09T07:52:49;21.10;99.90
36556;DHT22;40859;50.560;7.268;2022-07-09T07:55:15;21.10;99.90
36556;DHT22;40859;50.560;7.268;2022-07-09T07:57:41;21.10;99.90
36556;DHT22;40859;50.560;7.268;2022-07-09T08:00:08;21.10;99.90
36556;DHT22;40859;50.560;7.268;2022-07-09T08:02:34;21.20;99.90
36556;DHT22;40859;50.560;7.268;2022-07-09T08:05:00;21.20;99.90
36556;DHT22;40859;50.560;7.268;2022-07-09T08:07:26;21.20;99.90
36556;DHT22;40859;50.560;7.268;2022-07-09T08:09:52;21.20;99.90
36556;DHT22;40859;50.560;7.268;2022-07-09T08:12:18;21.30;99.90
36556;DHT22;40859;50.560;7.268;2022-07-09T08:14:44;21.20;99.90
36556;DHT22;40859;50.560;7.268;2022-07-09T08:17:10;21.20;99.90
36556;DHT22;40859;50.560;7.268;2022-07-09T08:19:36;21.20;99.90
36556;DHT22;40859;50.560;7.268;2022-07-09T08:22:03;21.30;99.90
36556;DHT22;40859;50.560;7.268;2022-07-09T08:24:29;21.30;99.90
36556;DHT22;40859;50.560;7.268;2022-07-09T08:26:55;21.30;99.90
36556;DHT22;40859;50.560;7.268;2022-07-09T08:29:20;21.40;99.90
36556;DHT22;40859;50.560;7.268;2022-07-09T08:31:46;21.40;99.90
36556;DHT22;40859;50.560;7.268;2022-07-09T08:34:15;21.40;99.90
36556;DHT22;40859;50.560;7.268;2022-07-09T08:36:41;21.40;99.90
36556;DHT22;40859;50.560;7.268;2022-07-09T08:39:07;21.40;99.90
36556;DHT22;40859;50.560;7.268;2022-07-09T08:41:33;21.50;99.90
36556;DHT22;40859;50.560;7.268;2022-07-09T08:44:00;21.50;99.90
36556;DHT22;40859;50.560;7.268;2022-07-09T08:46:27;21.50;99.90
36556;DHT22;40859;50.560;7.268;2022-07-09T08:48:54;21.50;99.90
36556;DHT22;40859;50.560;7.268;2022-07-09T08:51:21;21.50;99.90
36556;DHT22;40859;50.560;7.268;2022-07-09T08:53:48;21.60;99.90
36556;DHT22;40859;50.560;7.268;2022-07-09T08:56:14;21.60;99.90
36556;DHT22;40859;50.560;7.268;2022-07-09T08:58:40;21.60;99.90
36556;DHT22;40859;50.560;7.268;2022-07-09T09:01:05;21.60;99.90
36556;DHT22;40859;50.560;7.268;2022-07-09T09:03:32;21.60;99.90
36556;DHT22;40859;50.560;7.268;2022-07-09T09:06:06;21.60;99.90
36556;DHT22;40859;50.560;7.268;2022-07-09T09:08:41;21.60;99.90
36556;DHT22;40859;50.560;7.268;2022-07-09T09:11:15;21.70;99.90
36556;DHT22;40859;50.560;7.268;2022-07-09T09:13:45;21.70;99.90
36556;DHT22;40859;50.560;7.268;2022-07-09T09:16:13;21.70;99.90
36556;DHT22;40859;50.560;7.268;2022-07-09T09:18:43;21.70;99.90
36556;DHT22;40859;50.560;7.268;2022-07-09T09:21:11;21.80;99.90
36556;DHT22;40859;50.560;7.268;2022-07-09T09:23:53;21.80;99.90
36556;DHT22;40859;50.560;7.268;2022-07-09T09:26:24;21.70;99.90
36556;DHT22;40859;50.560;7.268;2022-07-09T09:29:00;21.80;99.90
36556;DHT22;40859;50.560;7.268;2022-07-09T09:31:31;21.70;99.90
36556;DHT22;40859;50.560;7.268;2022-07-09T09:34:09;21.80;99.90
36556;DHT22;40859;50.560;7.268;2022-07-09T09:36:43;21.80;99.90
36556;DHT22;40859;50.560;7.268;2022-07-09T09:39:24;21.80;99.90
36556;DHT22;40859;50.560;7.268;2022-07-09T09:41:55;21.80;99.90
36556;DHT22;40859;50.560;7.268;2022-07-09T09:44:22;21.90;99.90
36556;DHT22;40859;50.560;7.268;2022-07-09T09:46:53;21.80;99.90
36556;DHT22;40859;50.560;7.268;2022-07-09T09:49:19;21.90;99.90
36556;DHT22;40859;50.560;7.268;2022-07-09T09:54:47;21.90;99.90
36556;DHT22;40859;50.560;7.268;2022-07-09T09:57:14;21.90;99.90
36556;DHT22;40859;50.560;7.268;2022-07-09T09:59:43;21.90;99.90
36556;DHT22;40859;50.560;7.268;2022-07-09T10:02:10;22.00;99.90
36556;DHT22;40859;50.560;7.268;2022-07-09T10:04:40;22.00;99.90
36556;DHT22;40859;50.560;7.268;2022-07-09T10:07:07;22.00;99.90
36556;DHT22;40859;50.560;7.268;2022-07-09T10:09:33;22.10;99.90
36556;DHT22;40859;50.560;7.268;2022-07-09T10:11:59;22.10;99.90
36556;DHT22;40859;50.560;7.268;2022-07-09T10:14:34;22.00;99.90
36556;DHT22;40859;50.560;7.268;2022-07-09T10:17:13;22.00;99.90
36556;DHT22;40859;50.560;7.268;2022-07-09T10:23:48;22.20;99.90
36556;DHT22;40859;50.560;7.268;2022-07-09T10:26:15;22.20;99.90
36556;DHT22;40859;50.560;7.268;2022-07-09T10:28:41;22.20;99.90
36556;DHT22;40859;50.560;7.268;2022-07-09T10:31:07;22.20;99.90
36556;DHT22;40859;50.560;7.268;2022-07-09T10:33:33;22.20;99.90
36556;DHT22;40859;50.560;7.268;2022-07-09T10:36:14;22.20;99.90
36556;DHT22;40859;50.560;7.268;2022-07-09T10:38:40;22.20;99.90
36556;DHT22;40859;50.560;7.268;2022-07-09T10:41:06;22.30;99.90
36556;DHT22;40859;50.560;7.268;2022-07-09T10:43:42;22.20;99.90
36556;DHT22;40859;50.560;7.268;2022-07-09T10:46:12;22.20;99.90
36556;DHT22;40859;50.560;7.268;2022-07-09T10:48:39;22.20;99.90
36556;DHT22;40859;50.560;7.268;2022-07-09T10:51:05;22.20;99.90
36556;DHT22;40859;50.560;7.268;2022-07-09T10:53:30;22.30;99.90
36556;DHT22;40859;50.560;7.268;2022-07-09T10:55:56;22.40;99.90
36556;DHT22;40859;50.560;7.268;2022-07-09T10:58:24;22.40;99.90
36556;DHT22;40859;50.560;7.268;2022-07-09T11:00:57;22.40;99.90
36556;DHT22;40859;50.560;7.268;2022-07-09T11:03:28;22.40;99.90
36556;DHT22;40859;50.560;7.268;2022-07-09T11:05:54;22.40;99.90
36556;DHT22;40859;50.560;7.268;2022-07-09T11:08:20;22.40;99.90
36556;DHT22;40859;50.560;7.268;2022-07-09T11:10:46;22.40;99.90
36556;DHT22;40859;50.560;7.268;2022-07-09T11:13:13;22.30;99.90
36556;DHT22;40859;50.560;7.268;2022-07-09T11:15:39;22.40;99.90
36556;DHT22;40859;50.560;7.268;2022-07-09T11:18:09;22.40;99.90
36556;DHT22;40859;50.560;7.268;2022-07-09T11:23:16;22.40;99.90
36556;DHT22;40859;50.560;7.268;2022-07-09T11:25:43;22.40;99.90
36556;DHT22;40859;50.560;7.268;2022-07-09T11:28:09;22.40;99.90
36556;DHT22;40859;50.560;7.268;2022-07-09T11:30:44;22.40;99.90
36556;DHT22;40859;50.560;7.268;2022-07-09T11:33:12;22.80;99.90
36556;DHT22;40859;50.560;7.268;2022-07-09T11:35:38;22.70;99.90
36556;DHT22;40859;50.560;7.268;2022-07-09T11:38:05;22.60;99.90
36556;DHT22;40859;50.560;7.268;2022-07-09T11:40:33;22.60;99.90
36556;DHT22;40859;50.560;7.268;2022-07-09T11:42:59;22.50;99.90
36556;DHT22;40859;50.560;7.268;2022-07-09T11:45:28;22.50;99.90
36556;DHT22;40859;50.560;7.268;2022-07-09T11:48:09;22.50;99.90
36556;DHT22;40859;50.560;7.268;2022-07-09T11:50:46;22.60;99.90
36556;DHT22;40859;50.560;7.268;2022-07-09T11:53:24;22.90;99.90
36556;DHT22;40859;50.560;7.268;2022-07-09T11:56:00;22.80;99.90
36556;DHT22;40859;50.560;7.268;2022-07-09T11:58:26;22.70;99.90
36556;DHT22;40859;50.560;7.268;2022-07-09T12:00:52;22.70;99.90
36556;DHT22;40859;50.560;7.268;2022-07-09T12:03:28;22.60;99.90
36556;DHT22;40859;50.560;7.268;2022-07-09T12:05:55;22.60;99.90
36556;DHT22;40859;50.560;7.268;2022-07-09T12:08:28;22.70;99.90
36556;DHT22;40859;50.560;7.268;2022-07-09T12:10:58;22.60;99.90
36556;DHT22;40859;50.560;7.268;2022-07-09T12:13:24;22.70;99.90
36556;DHT22;40859;50.560;7.268;2022-07-09T12:15:50;22.70;99.90
36556;DHT22;40859;50.560;7.268;2022-07-09T12:18:16;22.70;99.90
36556;DHT22;40859;50.560;7.268;2022-07-09T12:20:41;22.60;99.90
36556;DHT22;40859;50.560;7.268;2022-07-09T12:23:07;22.70;99.90
36556;DHT22;40859;50.560;7.268;2022-07-09T12:25:33;22.70;99.90
36556;DHT22;40859;50.560;7.268;2022-07-09T12:27:59;22.80;99.90
36556;DHT22;40859;50.560;7.268;2022-07-09T12:30:25;22.70;99.90
36556;DHT22;40859;50.560;7.268;2022-07-09T12:32:51;22.70;99.90
36556;DHT22;40859;50.560;7.268;2022-07-09T12:35:17;22.80;99.90
36556;DHT22;40859;50.560;7.268;2022-07-09T12:37:43;22.70;99.90
36556;DHT22;40859;50.560;7.268;2022-07-09T12:40:10;22.70;99.90
36556;DHT22;40859;50.560;7.268;2022-07-09T12:42:37;22.60;99.90
36556;DHT22;40859;50.560;7.268;2022-07-09T12:45:03;22.80;99.90
36556;DHT22;40859;50.560;7.268;2022-07-09T12:47:29;22.70;99.90
36556;DHT22;40859;50.560;7.268;2022-07-09T12:49:55;22.80;99.90
36556;DHT22;40859;50.560;7.268;2022-07-09T12:52:21;22.70;99.90
36556;DHT22;40859;50.560;7.268;2022-07-09T12:54:47;22.70;99.90
36556;DHT22;40859;50.560;7.268;2022-07-09T12:57:12;22.70;99.90
36556;DHT22;40859;50.560;7.268;2022-07-09T12:59:38;22.70;99.90
36556;DHT22;40859;50.560;7.268;2022-07-09T13:02:05;22.80;99.90
36556;DHT22;40859;50.560;7.268;2022-07-09T13:04:31;22.80;99.90
36556;DHT22;40859;50.560;7.268;2022-07-09T13:06:57;22.70;99.90
36556;DHT22;40859;50.560;7.268;2022-07-09T13:09:23;22.80;99.90
36556;DHT22;40859;50.560;7.268;2022-07-09T13:11:49;22.80;99.90
36556;DHT22;40859;50.560;7.268;2022-07-09T13:14:15;22.80;99.90
36556;DHT22;40859;50.560;7.268;2022-07-09T13:16:41;23.00;99.90
36556;DHT22;40859;50.560;7.268;2022-07-09T13:19:07;22.90;99.90
36556;DHT22;40859;50.560;7.268;2022-07-09T13:21:33;22.90;99.90
36556;DHT22;40859;50.560;7.268;2022-07-09T13:23:59;22.80;99.90
36556;DHT22;40859;50.560;7.268;2022-07-09T13:26:25;22.90;99.90
36556;DHT22;40859;50.560;7.268;2022-07-09T13:28:51;22.90;99.90
36556;DHT22;40859;50.560;7.268;2022-07-09T13:31:17;22.80;99.90
36556;DHT22;40859;50.560;7.268;2022-07-09T13:33:44;22.90;99.90
36556;DHT22;40859;50.560;7.268;2022-07-09T13:36:10;22.80;99.90
36556;DHT22;40859;50.560;7.268;2022-07-09T13:38:36;22.80;99.90
36556;DHT22;40859;50.560;7.268;2022-07-09T13:41:02;22.80;99.90
36556;DHT22;40859;50.560;7.268;2022-07-09T13:43:28;22.80;99.90
36556;DHT22;40859;50.560;7.268;2022-07-09T13:45:57;22.80;99.90
36556;DHT22;40859;50.560;7.268;2022-07-09T13:48:24;22.80;99.90
36556;DHT22;40859;50.560;7.268;2022-07-09T13:50:50;22.80;99.90
36556;DHT22;40859;50.560;7.268;2022-07-09T13:53:16;22.90;99.90
36556;DHT22;40859;50.560;7.268;2022-07-09T13:55:43;22.90;99.90
36556;DHT22;40859;50.560;7.268;2022-07-09T13:58:09;22.90;99.90
36556;DHT22;40859;50.560;7.268;2022-07-09T14:00:35;22.90;99.90
36556;DHT22;40859;50.560;7.268;2022-07-09T14:03:01;22.90;99.90
36556;DHT22;40859;50.560;7.268;2022-07-09T14:05:27;22.90;99.90
36556;DHT22;40859;50.560;7.268;2022-07-09T14:07:54;22.90;99.90
36556;DHT22;40859;50.560;7.268;2022-07-09T14:10:22;22.90;99.90
36556;DHT22;40859;50.560;7.268;2022-07-09T14:12:48;22.90;99.90
36556;DHT22;40859;50.560;7.268;2022-07-09T14:15:14;22.80;99.90
36556;DHT22;40859;50.560;7.268;2022-07-09T14:17:45;22.80;99.90
36556;DHT22;40859;50.560;7.268;2022-07-09T14:20:11;22.80;99.90
36556;DHT22;40859;50.560;7.268;2022-07-09T14:22:37;22.90;99.90
36556;DHT22;40859;50.560;7.268;2022-07-09T14:25:04;22.90;99.90
36556;DHT22;40859;50.560;7.268;2022-07-09T14:27:30;22.80;99.90
36556;DHT22;40859;50.560;7.268;2022-07-09T14:29:56;22.80;99.90
36556;DHT22;40859;50.560;7.268;2022-07-09T14:32:22;22.70;99.90
36556;DHT22;40859;50.560;7.268;2022-07-09T14:34:48;22.70;99.90
36556;DHT22;40859;50.560;7.268;2022-07-09T14:37:14;22.60;99.90
36556;DHT22;40859;50.560;7.268;2022-07-09T14:39:40;22.60;99.90
36556;DHT22;40859;50.560;7.268;2022-07-09T14:42:05;22.60;99.90
36556;DHT22;40859;50.560;7.268;2022-07-09T14:44:31;22.60;99.90
36556;DHT22;40859;50.560;7.268;2022-07-09T14:46:57;22.50;99.90
36556;DHT22;40859;50.560;7.268;2022-07-09T14:49:26;22.50;99.90
36556;DHT22;40859;50.560;7.268;2022-07-09T14:51:52;22.40;99.90
36556;DHT22;40859;50.560;7.268;2022-07-09T14:54:22;22.40;99.90
36556;DHT22;40859;50.560;7.268;2022-07-09T14:56:48;22.50;99.90
36556;DHT22;40859;50.560;7.268;2022-07-09T14:59:14;22.40;99.90
36556;DHT22;40859;50.560;7.268;2022-07-09T15:01:45;22.50;99.90
36556;DHT22;40859;50.560;7.268;2022-07-09T15:04:12;22.50;99.90
36556;DHT22;40859;50.560;7.268;2022-07-09T15:06:37;22.50;99.90
36556;DHT22;40859;50.560;7.268;2022-07-09T15:09:03;22.30;99.90
36556;DHT22;40859;50.560;7.268;2022-07-09T15:11:29;22.40;99.90
36556;DHT22;40859;50.560;7.268;2022-07-09T15:13:57;22.40;99.90
36556;DHT22;40859;50.560;7.268;2022-07-09T15:16:23;22.50;99.90
36556;DHT22;40859;50.560;7.268;2022-07-09T15:18:49;22.40;99.90
36556;DHT22;40859;50.560;7.268;2022-07-09T15:21:16;22.40;99.90
36556;DHT22;40859;50.560;7.268;2022-07-09T15:23:42;22.30;99.90
36556;DHT22;40859;50.560;7.268;2022-07-09T15:26:08;22.30;99.90
36556;DHT22;40859;50.560;7.268;2022-07-09T15:28:33;22.30;99.90
36556;DHT22;40859;50.560;7.268;2022-07-09T15:31:00;22.40;99.90
36556;DHT22;40859;50.560;7.268;2022-07-09T15:33:25;22.40;99.90
36556;DHT22;40859;50.560;7.268;2022-07-09T15:35:52;22.60;99.90
36556;DHT22;40859;50.560;7.268;2022-07-09T15:38:17;22.60;99.90
36556;DHT22;40859;50.560;7.268;2022-07-09T15:40:43;22.60;99.90